Time;durP1;ratioP1;P1;durP2;ratioP2;P2;SDS_P1;SDS_P2;PMS_P1;PMS_P2;Temp;Humidity;BMP_temperature;BMP_pressure;BME280_temperature;BME280_humidity;BME280_pressure;Samples;Min_cycle;Max_cycle;Signal;HPM_P1;HPM_P2
2021/05/06 00:33:54;;;;;;;3.88;2.03;;;13.50;53.60;;;;;;5052754;28;20021;-79
2021/05/06 00:36:20;;;;;;;3.45;1.92;;;13.50;53.60;;;;;;5051988;28;20112;-79
2021/05/06 00:39:07;;;;;;;2.78;1.90;;;13.50;53.70;;;;;;5052905;28;20383;-79
2021/05/06 01:05:44;;;;;;;2.05;1.60;;;13.40;55.10;;;;;;5052647;28;20056;-80
2021/05/06 01:08:20;;;;;;;2.75;1.80;;;13.40;55.20;;;;;;5053125;28;20021;-80
2021/05/06 01:13:25;;;;;;;2.75;1.73;;;13.40;55.60;;;;;;5052876;28;20339;-80
2021/05/06 01:15:51;;;;;;;4.18;1.70;;;13.30;55.90;;;;;;5051517;28;20538;-84
2021/05/06 01:18:17;;;;;;;3.92;2.20;;;13.30;56.20;;;;;;5051381;28;20116;-79
2021/05/06 01:20:44;;;;;;;3.33;1.90;;;13.30;56.40;;;;;;5050966;28;20029;-80
2021/05/06 01:23:10;;;;;;;2.25;1.52;;;13.30;56.70;;;;;;5052018;28;20021;-80
2021/05/06 01:25:36;;;;;;;2.97;1.90;;;13.30;56.80;;;;;;5051241;28;20399;-79
2021/05/06 01:28:07;;;;;;;2.90;2.00;;;13.30;56.90;;;;;;5051087;28;20029;-82
2021/05/06 01:30:42;;;;;;;4.22;2.40;;;13.30;57.10;;;;;;5052243;28;20380;-80
2021/05/06 01:33:28;;;;;;;3.50;2.13;;;13.30;57.30;;;;;;5050994;28;20089;-80
2021/05/06 01:35:58;;;;;;;5.88;2.30;;;13.30;58.00;;;;;;5051261;28;20029;-81
2021/05/06 01:57:35;;;;;;;5.07;2.13;;;13.00;60.70;;;;;;5059847;28;20039;-81
2021/05/06 02:00:08;;;;;;;3.03;1.95;;;12.90;60.90;;;;;;5063112;28;20047;-81
2021/05/06 02:02:35;;;;;;;5.88;2.25;;;12.90;61.00;;;;;;5056837;28;20032;-81
2021/05/06 02:05:00;;;;;;;3.72;2.10;;;12.90;61.30;;;;;;5055413;28;20029;-81
2021/05/06 02:07:26;;;;;;;4.90;2.35;;;12.90;61.30;;;;;;5055263;28;20049;-80
2021/05/06 02:09:52;;;;;;;3.35;2.10;;;12.90;61.40;;;;;;5058192;28;20021;-81
2021/05/06 02:12:19;;;;;;;6.75;2.30;;;12.90;61.30;;;;;;5056049;28;20033;-81
2021/05/06 02:14:59;;;;;;;5.15;2.22;;;12.90;61.30;;;;;;5058784;28;20053;-80
2021/05/06 02:17:25;;;;;;;3.88;2.20;;;12.90;61.50;;;;;;5057902;28;20021;-81
2021/05/06 02:19:50;;;;;;;3.22;2.22;;;12.90;61.50;;;;;;5058881;28;20024;-81
2021/05/06 02:22:18;;;;;;;4.93;2.40;;;13.00;62.10;;;;;;5060289;28;20005;-80
2021/05/06 02:24:44;;;;;;;5.72;2.30;;;13.00;61.40;;;;;;5075461;28;20092;-81
2021/05/06 02:27:10;;;;;;;3.85;2.35;;;13.00;61.40;;;;;;5063159;28;20035;-80
2021/05/06 02:29:36;;;;;;;3.33;2.28;;;13.00;61.50;;;;;;5055543;28;20029;-81
2021/05/06 02:32:03;;;;;;;4.75;2.08;;;13.00;61.50;;;;;;5054141;28;20040;-81
2021/05/06 02:34:28;;;;;;;5.45;2.38;;;13.00;61.50;;;;;;5053835;28;20078;-81
2021/05/06 02:36:54;;;;;;;5.07;2.28;;;13.00;61.60;;;;;;5054097;28;20029;-81
2021/05/06 02:39:20;;;;;;;7.38;2.22;;;13.10;61.60;;;;;;5054077;28;20427;-81
2021/05/06 02:41:46;;;;;;;3.58;2.13;;;13.10;61.50;;;;;;5053562;28;20225;-80
2021/05/06 02:44:11;;;;;;;7.22;2.40;;;13.10;61.50;;;;;;5053968;28;20498;-80
2021/05/06 02:46:37;;;;;;;2.70;1.70;;;13.10;61.50;;;;;;5052999;28;20494;-81
2021/05/06 02:49:03;;;;;;;3.63;2.47;;;13.10;61.30;;;;;;5055010;28;20021;-81
2021/05/06 02:51:34;;;;;;;5.13;2.42;;;13.10;61.40;;;;;;5055093;28;20044;-80
2021/05/06 02:54:00;;;;;;;4.80;2.35;;;13.10;61.40;;;;;;5054642;28;20017;-80
2021/05/06 02:56:36;;;;;;;3.95;2.10;;;13.10;61.30;;;;;;5054628;28;20434;-81
2021/05/06 03:04:14;;;;;;;4.70;2.45;;;13.10;61.10;;;;;;5054594;28;20024;-80
2021/05/06 03:06:53;;;;;;;7.18;2.50;;;13.10;60.90;;;;;;5052686;28;20057;-79
2021/05/06 03:09:54;;;;;;;8.63;2.72;;;13.10;60.90;;;;;;5053098;28;20436;-81
2021/05/06 03:12:41;;;;;;;4.82;2.17;;;13.10;61.00;;;;;;5053229;28;20033;-80
2021/05/06 03:23:21;;;;;;;4.75;2.33;;;13.10;61.00;;;;;;5054381;28;20090;-80
2021/05/06 03:25:47;;;;;;;5.18;2.40;;;13.10;60.90;;;;;;5054298;28;20029;-80
2021/05/06 03:28:15;;;;;;;4.97;2.80;;;13.10;61.00;;;;;;5053172;28;20513;-81
2021/05/06 03:31:01;;;;;;;4.22;2.10;;;13.10;61.10;;;;;;5054396;28;20450;-81
2021/05/06 04:27:19;;;;;;;3.10;1.93;;;17.00;54.60;;;;;;5053223;28;20025;-81
2021/05/06 04:37:50;;;;;;;10.93;3.67;;;17.60;51.30;;;;;;5052974;28;20044;-76
2021/05/06 04:44:16;;;;;;;3.08;1.40;;;17.90;50.30;;;;;;5051094;28;20048;-82
2021/05/06 04:56:46;;;;;;;9.15;3.88;;;18.80;47.90;;;;;;5053019;28;20033;-80
2021/05/06 05:04:37;;;;;;;4.25;2.13;;;19.10;47.80;;;;;;5049814;28;20082;-78
2021/05/06 05:25:39;;;;;;;4.80;1.70;;;19.80;43.30;;;;;;5058103;28;20017;-77
2021/05/06 05:28:06;;;;;;;3.88;1.77;;;19.90;42.40;;;;;;5050384;28;20387;-77
2021/05/06 05:30:34;;;;;;;4.68;1.67;;;19.90;42.80;;;;;;5062447;28;20025;-79
2021/05/06 05:33:01;;;;;;;7.25;2.20;;;19.50;42.50;;;;;;5055474;28;20797;-76
2021/05/06 05:43:56;;;;;;;3.38;1.77;;;18.60;45.20;;;;;;5049731;28;20139;-79
2021/05/06 05:54:39;;;;;;;4.00;2.17;;;18.80;45.10;;;;;;5055619;28;20517;-80
2021/05/06 05:57:08;;;;;;;2.78;1.60;;;18.70;46.10;;;;;;5055177;28;20059;-80
2021/05/06 05:59:34;;;;;;;3.95;1.50;;;18.70;45.60;;;;;;5056300;28;20024;-80
2021/05/06 06:02:00;;;;;;;6.38;2.17;;;18.40;45.60;;;;;;5055301;28;20029;-80
2021/05/06 06:04:26;;;;;;;5.07;1.85;;;18.10;46.40;;;;;;5056843;28;20033;-80
2021/05/06 06:06:51;;;;;;;3.80;1.75;;;18.30;47.70;;;;;;5054824;28;20053;-80
2021/05/06 06:09:17;;;;;;;3.15;1.65;;;18.90;47.20;;;;;;5056071;28;20082;-81
2021/05/06 06:11:43;;;;;;;2.83;1.70;;;19.50;46.10;;;;;;5069667;28;20031;-81
2021/05/06 06:14:09;;;;;;;6.00;1.83;;;20.10;44.80;;;;;;5075994;28;20025;-81
2021/05/06 06:16:38;;;;;;;4.03;1.70;;;20.30;44.20;;;;;;5074597;28;20032;-81
2021/05/06 06:19:04;;;;;;;3.50;1.95;;;20.00;43.20;;;;;;5077548;28;20001;-81
2021/05/06 06:24:00;;;;;;;6.82;2.05;;;18.90;44.70;;;;;;5053504;28;20151;-80
2021/05/06 06:26:26;;;;;;;11.35;1.95;;;18.40;45.80;;;;;;5055317;28;20504;-80
2021/05/06 06:29:00;;;;;;;8.60;2.30;;;18.10;46.70;;;;;;5055450;28;20067;-80
2021/05/06 06:34:00;;;;;;;3.47;1.87;;;17.70;48.20;;;;;;5056574;28;20060;-79
2021/05/06 06:36:26;;;;;;;5.47;2.50;;;17.40;48.50;;;;;;5055122;28;20438;-80
2021/05/06 06:38:53;;;;;;;4.32;2.00;;;17.20;48.90;;;;;;5055068;28;20107;-80
2021/05/06 06:41:19;;;;;;;6.25;2.53;;;17.00;49.30;;;;;;5054227;28;20025;-79
2021/05/06 06:43:47;;;;;;;8.02;2.88;;;16.90;49.70;;;;;;5053891;28;20124;-80
2021/05/06 06:46:13;;;;;;;5.60;2.63;;;16.70;49.80;;;;;;5055192;28;20116;-80
2021/05/06 06:48:39;;;;;;;4.72;2.65;;;16.60;49.40;;;;;;5055623;28;20519;-79
2021/05/06 06:51:05;;;;;;;7.70;2.83;;;16.60;49.60;;;;;;5053948;28;20017;-80
2021/05/06 06:53:30;;;;;;;7.78;2.20;;;16.50;49.70;;;;;;5055734;28;20036;-80
2021/05/06 06:55:59;;;;;;;6.53;1.60;;;16.50;49.60;;;;;;5054026;28;20036;-80
2021/05/06 06:58:25;;;;;;;6.20;3.03;;;16.40;49.50;;;;;;5055759;28;20416;-80
2021/05/06 07:00:50;;;;;;;5.95;2.33;;;16.30;49.70;;;;;;5053524;28;20113;-81
2021/05/06 07:03:17;;;;;;;7.32;2.88;;;16.30;50.50;;;;;;5054400;28;20028;-80
2021/05/06 07:05:42;;;;;;;4.25;2.05;;;16.20;50.00;;;;;;5053673;28;20143;-80
2021/05/06 07:08:17;;;;;;;5.32;2.72;;;16.20;50.10;;;;;;5053698;28;20518;-81
2021/05/06 07:10:45;;;;;;;5.28;2.80;;;16.20;50.30;;;;;;5053521;28;20048;-80
2021/05/06 07:13:12;;;;;;;8.88;3.03;;;16.20;50.50;;;;;;5054884;28;20029;-81
2021/05/06 07:15:37;;;;;;;8.25;2.58;;;16.20;50.70;;;;;;5053661;28;20082;-80
2021/05/06 07:18:07;;;;;;;5.82;2.50;;;16.20;50.90;;;;;;5053446;28;20375;-81
2021/05/06 07:20:33;;;;;;;5.82;1.98;;;16.20;50.80;;;;;;5054502;28;20024;-81
2021/05/06 07:22:58;;;;;;;6.53;2.40;;;16.20;51.00;;;;;;5053318;28;20021;-81
2021/05/06 07:25:24;;;;;;;8.30;3.22;;;16.20;51.30;;;;;;5053369;28;20029;-80
2021/05/06 07:27:50;;;;;;;11.90;3.80;;;16.20;52.60;;;;;;5054762;28;20029;-81
2021/05/06 07:30:16;;;;;;;52.28;12.00;;;16.00;54.10;;;;;;5053398;28;20392;-81
2021/05/06 07:32:44;;;;;;;50.55;10.75;;;15.90;55.40;;;;;;5053241;28;20036;-81
2021/05/06 07:35:10;;;;;;;27.48;7.68;;;15.80;56.50;;;;;;5054373;28;20021;-81
2021/05/06 07:37:36;;;;;;;35.67;10.90;;;15.70;58.30;;;;;;5053000;28;20033;-81
2021/05/06 07:40:02;;;;;;;65.95;18.05;;;15.70;58.90;;;;;;5052862;28;20388;-81
2021/05/06 07:42:29;;;;;;;64.85;16.55;;;15.50;60.20;;;;;;5052680;28;20029;-82
2021/05/06 07:44:55;;;;;;;52.17;15.35;;;15.40;60.90;;;;;;5053177;28;20064;-80
2021/05/06 07:47:20;;;;;;;83.53;20.95;;;15.40;61.20;;;;;;5052962;28;20028;-81
2021/05/06 07:49:49;;;;;;;27.17;7.97;;;15.40;61.50;;;;;;5053551;28;20063;-80
2021/05/06 07:52:18;;;;;;;30.35;8.82;;;15.40;61.30;;;;;;5053326;28;20051;-80
2021/05/06 07:54:44;;;;;;;53.55;13.52;;;15.30;61.80;;;;;;5054078;28;20052;-80
2021/05/06 07:57:10;;;;;;;7.18;3.30;;;15.10;63.40;;;;;;5052604;28;20052;-80
2021/05/06 07:59:35;;;;;;;5.63;3.00;;;14.90;64.20;;;;;;5052867;28;20491;-80
2021/05/06 08:02:03;;;;;;;6.53;4.10;;;14.80;64.60;;;;;;5054403;28;20029;-80
2021/05/06 08:04:29;;;;;;;8.27;4.25;;;14.70;65.40;;;;;;5052638;28;20071;-80
2021/05/06 08:06:54;;;;;;;8.23;4.07;;;14.70;66.40;;;;;;5052409;28;20072;-80
2021/05/06 08:09:20;;;;;;;20.75;7.43;;;14.80;66.40;;;;;;5052434;28;20476;-81
2021/05/06 08:11:46;;;;;;;53.65;14.73;;;15.00;66.50;;;;;;5052610;28;20651;-81
2021/05/06 08:14:11;;;;;;;34.92;9.75;;;15.20;65.70;;;;;;5053488;28;20403;-81
2021/05/06 08:16:37;;;;;;;26.55;7.78;;;15.50;65.30;;;;;;5057723;28;20079;-80
2021/05/06 08:19:03;;;;;;;12.13;5.20;;;15.70;65.00;;;;;;5062633;28;20029;-80
2021/05/06 08:21:29;;;;;;;6.90;3.83;;;15.90;64.60;;;;;;5062639;28;20021;-81
2021/05/06 08:23:55;;;;;;;4.68;2.60;;;16.00;64.70;;;;;;5070683;28;20025;-80
2021/05/06 08:26:21;;;;;;;4.63;2.70;;;16.20;62.80;;;;;;5069552;28;20028;-81
2021/05/06 08:28:47;;;;;;;5.15;3.20;;;16.20;61.80;;;;;;5063108;28;20102;-80
2021/05/06 08:31:13;;;;;;;6.88;2.90;;;16.10;61.60;;;;;;5059098;28;20028;-79
2021/05/06 08:33:39;;;;;;;3.92;2.28;;;16.00;61.40;;;;;;5065811;28;20024;-79
2021/05/06 08:36:05;;;;;;;3.90;2.50;;;16.20;62.30;;;;;;5063969;28;20028;-80
2021/05/06 08:38:30;;;;;;;4.03;2.50;;;16.80;61.50;;;;;;5065984;28;20020;-80
2021/05/06 08:40:57;;;;;;;5.43;2.80;;;17.40;60.80;;;;;;5072826;28;20075;-78
2021/05/06 08:43:26;;;;;;;5.70;3.05;;;18.00;59.30;;;;;;5056303;28;20029;-80
2021/05/06 08:45:54;;;;;;;7.35;3.15;;;18.70;58.60;;;;;;5054356;28;20029;-80
2021/05/06 08:48:20;;;;;;;7.50;3.38;;;19.40;56.60;;;;;;5052833;28;20043;-80
2021/05/06 08:50:46;;;;;;;3.88;2.95;;;19.70;55.10;;;;;;5052359;28;20120;-81
2021/05/06 08:53:13;;;;;;;4.50;3.13;;;20.00;54.70;;;;;;5052283;28;20025;-81
2021/05/06 08:55:41;;;;;;;6.10;3.47;;;20.50;53.90;;;;;;5052246;28;20398;-81
2021/05/06 08:58:07;;;;;;;10.80;3.63;;;20.60;53.30;;;;;;5052625;28;20154;-80
2021/05/06 09:00:33;;;;;;;11.23;3.88;;;20.40;52.80;;;;;;5051880;28;20028;-80
2021/05/06 09:02:59;;;;;;;5.57;2.97;;;19.80;52.80;;;;;;5051316;28;20021;-80
2021/05/06 09:05:24;;;;;;;6.50;3.17;;;19.20;53.60;;;;;;5052948;28;20032;-80
2021/05/06 09:07:51;;;;;;;6.47;3.83;;;18.70;55.00;;;;;;5051230;28;20055;-80
2021/05/06 09:10:58;;;;;;;5.70;3.50;;;18.30;56.20;;;;;;5051802;28;20025;-80
2021/05/06 09:13:30;;;;;;;9.07;4.40;;;17.90;57.20;;;;;;5010937;28;20408;-80
2021/05/06 09:15:56;;;;;;;6.15;3.60;;;17.70;58.50;;;;;;5041668;28;20407;-80
2021/05/06 09:18:44;;;;;;;6.40;3.80;;;17.60;59.10;;;;;;5051276;28;20032;-79
2021/05/06 09:21:29;;;;;;;7.15;3.88;;;17.60;59.70;;;;;;5051762;28;20025;-79
2021/05/06 09:24:20;;;;;;;7.72;4.38;;;18.00;60.20;;;;;;5053178;28;20391;-80
2021/05/06 09:26:46;;;;;;;8.23;4.30;;;18.60;59.30;;;;;;5050884;28;20041;-80
2021/05/06 09:29:27;;;;;;;8.45;3.55;;;19.00;59.10;;;;;;5051816;28;20025;-79
2021/05/06 09:31:52;;;;;;;8.05;3.97;;;18.90;56.90;;;;;;5051597;28;20360;-80
2021/05/06 09:34:18;;;;;;;6.93;3.97;;;18.50;57.30;;;;;;5051597;28;20021;-80
2021/05/06 09:36:44;;;;;;;7.53;4.13;;;18.20;58.50;;;;;;5051140;28;20122;-80
2021/05/06 09:39:10;;;;;;;12.82;5.85;;;17.80;58.80;;;;;;5052641;28;20150;-79
2021/05/06 09:41:37;;;;;;;14.23;5.10;;;17.40;59.90;;;;;;5051593;28;20194;-80
2021/05/06 09:44:13;;;;;;;21.27;6.28;;;17.20;60.90;;;;;;5037681;28;20175;-78
2021/05/06 09:46:43;;;;;;;55.25;13.90;;;16.90;61.80;;;;;;5051177;28;20075;-80
2021/05/06 09:49:17;;;;;;;29.45;8.70;;;16.70;62.50;;;;;;5051340;28;20021;-80
2021/05/06 09:51:42;;;;;;;40.25;10.95;;;16.60;63.10;;;;;;5051276;28;20416;-79
2021/05/06 09:54:19;;;;;;;15.80;6.00;;;16.50;63.50;;;;;;5051305;28;20147;-80
2021/05/06 09:56:45;;;;;;;10.57;5.15;;;16.30;64.30;;;;;;5052358;28;20479;-80
2021/05/06 09:59:20;;;;;;;10.50;4.93;;;16.10;66.70;;;;;;5052424;28;20025;-80
2021/05/06 10:01:46;;;;;;;11.10;4.63;;;15.90;68.00;;;;;;5051356;28;20028;-80
2021/05/06 10:04:19;;;;;;;8.70;4.75;;;15.70;69.30;;;;;;5050839;28;20029;-82
2021/05/06 10:07:25;;;;;;;17.77;7.28;;;15.60;70.50;;;;;;5050867;28;20056;-79
2021/05/06 10:09:56;;;;;;;34.88;11.00;;;15.40;71.40;;;;;;5035885;28;20033;-79
2021/05/06 10:12:24;;;;;;;64.45;14.75;;;15.30;72.10;;;;;;5051403;28;20464;-79
2021/05/06 10:14:50;;;;;;;79.05;18.88;;;15.10;72.50;;;;;;5054287;28;20039;-79
2021/05/06 10:17:18;;;;;;;69.55;15.40;;;15.00;72.80;;;;;;5055108;28;20040;-78
2021/05/06 10:19:44;;;;;;;84.15;21.63;;;14.90;73.50;;;;;;5054799;28;20387;-79
2021/05/06 10:22:11;;;;;;;104.40;23.75;;;14.80;74.00;;;;;;5054661;28;20017;-79
2021/05/06 10:24:45;;;;;;;144.52;30.05;;;14.80;74.40;;;;;;5062216;28;20025;-82
2021/05/06 10:27:13;;;;;;;152.13;32.85;;;14.90;74.70;;;;;;5056311;28;20029;-79
2021/05/06 10:29:40;;;;;;;114.57;25.90;;;15.00;75.30;;;;;;5055810;28;20033;-80
2021/05/06 10:32:11;;;;;;;89.68;21.55;;;15.20;75.20;;;;;;5056596;28;20041;-79
2021/05/06 10:34:37;;;;;;;55.63;14.38;;;15.30;74.60;;;;;;5073992;28;20080;-80
2021/05/06 10:37:03;;;;;;;55.45;16.08;;;15.50;74.30;;;;;;5075810;28;20016;-80
2021/05/06 10:39:40;;;;;;;14.18;7.35;;;15.60;74.40;;;;;;5073463;28;20116;-80
2021/05/06 10:42:29;;;;;;;10.20;6.03;;;15.70;74.40;;;;;;5075580;28;20029;-80
2021/05/06 10:45:13;;;;;;;10.65;6.03;;;15.90;73.50;;;;;;5058772;28;20128;-81
2021/05/06 10:47:46;;;;;;;15.50;6.40;;;15.90;73.80;;;;;;5048340;28;20028;-80
2021/05/06 10:50:32;;;;;;;18.83;7.22;;;16.10;73.60;;;;;;5060121;28;20037;-80
2021/05/06 10:52:57;;;;;;;15.48;7.07;;;16.30;73.10;;;;;;5058753;28;20060;-80
2021/05/06 10:55:42;;;;;;;12.07;6.25;;;16.30;72.10;;;;;;5057901;28;20087;-80
2021/05/06 10:58:25;;;;;;;37.88;11.90;;;16.30;71.70;;;;;;5053872;28;20021;-80
2021/05/06 11:01:08;;;;;;;50.20;14.38;;;16.20;71.90;;;;;;5053902;28;20029;-79
2021/05/06 11:03:36;;;;;;;59.38;15.98;;;16.20;72.00;;;;;;5054202;28;20029;-80
2021/05/06 11:06:02;;;;;;;96.88;23.55;;;16.10;72.70;;;;;;5053460;28;20056;-81
2021/05/06 11:08:34;;;;;;;79.97;20.02;;;16.00;72.90;;;;;;5055030;28;20029;-82
2021/05/06 11:11:00;;;;;;;174.63;39.97;;;16.10;73.20;;;;;;5053668;28;20029;-80
2021/05/06 11:13:28;;;;;;;128.35;31.60;;;16.30;73.80;;;;;;5055047;28;20086;-79
2021/05/06 11:16:19;;;;;;;114.22;27.50;;;16.40;73.90;;;;;;5054779;28;20494;-80
2021/05/06 11:18:49;;;;;;;46.13;16.40;;;16.70;73.70;;;;;;5042312;28;20025;-80
2021/05/06 11:21:30;;;;;;;57.92;14.18;;;16.90;73.00;;;;;;5054942;28;20032;-80
2021/05/06 11:24:23;;;;;;;60.40;16.23;;;16.90;72.40;;;;;;5055144;28;20025;-80
2021/05/06 11:27:08;;;;;;;95.43;24.98;;;16.90;72.10;;;;;;5053221;28;20174;-79
2021/05/06 11:29:36;;;;;;;72.00;19.45;;;16.80;72.50;;;;;;5053339;28;20124;-79
2021/05/06 11:32:02;;;;;;;78.00;20.10;;;16.90;73.00;;;;;;5054827;28;20013;-81
2021/05/06 11:34:34;;;;;;;133.18;30.25;;;16.80;73.10;;;;;;5053319;28;20044;-79
2021/05/06 11:37:07;;;;;;;102.65;24.05;;;16.90;73.10;;;;;;5053430;28;20387;-80
2021/05/06 11:39:33;;;;;;;142.77;30.02;;;16.90;73.20;;;;;;5053138;28;20052;-80
2021/05/06 11:41:58;;;;;;;135.93;30.73;;;16.80;73.00;;;;;;5052883;28;20056;-80
2021/05/06 11:44:24;;;;;;;83.70;20.80;;;16.70;73.60;;;;;;5053394;28;20036;-81
2021/05/06 11:46:50;;;;;;;114.13;27.42;;;16.70;73.60;;;;;;5053019;28;20025;-81
2021/05/06 11:49:17;;;;;;;125.32;26.88;;;16.60;73.40;;;;;;5053051;28;20028;-81
2021/05/06 11:51:47;;;;;;;144.95;33.22;;;16.50;73.80;;;;;;5052910;28;20517;-81
2021/05/06 11:54:15;;;;;;;165.00;35.80;;;16.50;74.10;;;;;;5052711;28;20029;-81
2021/05/06 11:56:44;;;;;;;114.05;25.77;;;16.50;74.40;;;;;;5052818;28;20036;-81
2021/05/06 11:59:14;;;;;;;110.78;27.25;;;16.50;74.40;;;;;;5052774;28;20021;-81
2021/05/06 12:01:40;;;;;;;161.07;43.88;;;16.40;74.60;;;;;;5053989;28;20024;-80
2021/05/06 12:04:06;;;;;;;92.65;23.35;;;16.40;75.00;;;;;;5053018;28;20032;-80
2021/05/06 12:06:36;;;;;;;51.10;18.85;;;16.60;75.20;;;;;;5052151;28;20403;-80
2021/05/06 12:09:06;;;;;;;26.00;10.25;;;16.70;74.90;;;;;;5054080;28;20025;-80
2021/05/06 12:11:40;;;;;;;15.52;8.88;;;16.70;74.60;;;;;;5052735;28;20021;-80
2021/05/06 12:14:08;;;;;;;13.98;7.68;;;16.60;74.50;;;;;;5054359;28;20099;-81
2021/05/06 12:16:35;;;;;;;16.35;8.00;;;16.60;75.20;;;;;;5052338;28;20031;-81
2021/05/06 12:19:10;;;;;;;13.25;8.90;;;16.50;74.70;;;;;;5052689;28;20418;-80
2021/05/06 12:21:47;;;;;;;13.03;8.30;;;16.50;75.00;;;;;;5052159;28;20031;-81
2021/05/06 12:24:30;;;;;;;15.40;8.38;;;16.40;75.00;;;;;;5054220;28;20439;-81
2021/05/06 12:26:56;;;;;;;13.10;8.45;;;16.40;75.20;;;;;;5052770;28;20517;-81
2021/05/06 12:29:24;;;;;;;12.32;7.60;;;16.50;75.50;;;;;;5053214;28;20033;-81
2021/05/06 12:31:51;;;;;;;13.25;7.20;;;16.50;75.00;;;;;;5053019;28;20028;-81
2021/05/06 12:34:22;;;;;;;11.38;7.50;;;16.50;74.70;;;;;;5053377;28;20025;-81
2021/05/06 12:36:54;;;;;;;13.88;7.88;;;16.50;74.50;;;;;;5052572;28;20120;-81
2021/05/06 12:39:21;;;;;;;10.30;7.85;;;16.50;74.70;;;;;;5054172;28;20021;-81
2021/05/06 12:41:58;;;;;;;10.38;7.47;;;16.60;74.60;;;;;;5053504;28;20021;-82
2021/05/06 12:44:39;;;;;;;10.85;7.63;;;16.70;74.00;;;;;;5060089;28;20037;-83
2021/05/06 12:47:20;;;;;;;10.63;7.15;;;16.70;73.60;;;;;;5077345;28;20032;-82
2021/05/06 12:50:06;;;;;;;9.98;7.90;;;16.70;73.20;;;;;;5077238;28;20036;-82
2021/05/06 12:52:41;;;;;;;10.77;6.60;;;16.70;73.60;;;;;;5076280;28;20029;-82
2021/05/06 12:55:26;;;;;;;;;;;16.70;73.00;;;;;;5075449;28;20097;-82
2021/05/06 12:58:07;;;;;;;11.55;7.78;;;16.70;72.70;;;;;;5064225;28;19912;-81
2021/05/06 13:00:34;;;;;;;9.13;7.00;;;16.70;73.40;;;;;;5060846;28;20065;-81
2021/05/06 13:03:05;;;;;;;9.60;6.82;;;16.70;72.60;;;;;;5060073;28;20452;-81
2021/05/06 13:05:42;;;;;;;12.32;7.07;;;16.70;72.10;;;;;;5057653;28;20033;-81
2021/05/06 13:08:08;;;;;;;10.98;7.10;;;16.70;71.50;;;;;;5056551;28;20036;-81
2021/05/06 13:10:35;;;;;;;9.60;7.43;;;16.70;71.00;;;;;;5052191;28;20029;-81
2021/05/06 13:13:03;;;;;;;9.45;7.78;;;16.70;71.10;;;;;;5051634;28;20114;-81
2021/05/06 13:15:29;;;;;;;10.77;8.32;;;16.60;71.40;;;;;;5051945;28;20116;-81
2021/05/06 13:17:58;;;;;;;8.13;6.95;;;16.50;71.50;;;;;;5051380;28;20021;-81
2021/05/06 13:20:27;;;;;;;12.18;7.68;;;16.50;71.40;;;;;;5052530;28;20029;-81
2021/05/06 13:23:10;;;;;;;13.63;8.05;;;16.50;71.10;;;;;;5052969;28;20025;-81
2021/05/06 13:25:42;;;;;;;11.20;7.97;;;16.50;70.80;;;;;;5040996;28;20029;-81
2021/05/06 13:28:08;;;;;;;11.88;8.52;;;16.50;70.90;;;;;;5051253;28;20372;-82
2021/05/06 13:30:34;;;;;;;11.50;8.32;;;16.50;71.10;;;;;;5051511;28;20051;-82
2021/05/06 13:33:15;;;;;;;11.57;8.48;;;16.50;71.00;;;;;;5051591;28;20025;-82
2021/05/06 13:35:41;;;;;;;14.25;9.48;;;16.50;70.80;;;;;;5038807;28;20028;-82
2021/05/06 13:38:07;;;;;;;13.52;9.77;;;16.60;70.70;;;;;;5051571;28;20021;-81
2021/05/06 13:40:33;;;;;;;13.98;10.45;;;16.60;70.50;;;;;;5051051;28;20028;-82
2021/05/06 13:42:58;;;;;;;14.35;10.82;;;16.70;70.60;;;;;;5051228;28;20025;-81
2021/05/06 13:45:24;;;;;;;16.13;11.95;;;16.70;70.80;;;;;;5051401;28;20021;-81
2021/05/06 13:47:50;;;;;;;15.80;12.60;;;16.60;70.80;;;;;;5051496;28;20079;-80
2021/05/06 13:50:16;;;;;;;14.35;9.90;;;16.60;70.80;;;;;;5055259;28;20075;-80
2021/05/06 13:52:43;;;;;;;12.77;7.70;;;16.60;70.70;;;;;;5056261;28;20049;-81
2021/05/06 13:55:10;;;;;;;10.98;7.50;;;16.50;70.20;;;;;;5056381;28;20025;-82
2021/05/06 13:57:37;;;;;;;12.10;7.35;;;16.50;70.20;;;;;;5054778;28;20037;-81
2021/05/06 14:00:04;;;;;;;11.35;7.07;;;16.50;70.20;;;;;;5055259;28;20499;-81
2021/05/06 14:02:30;;;;;;;8.80;6.57;;;16.50;70.00;;;;;;5055005;28;20032;-83
2021/05/06 14:04:56;;;;;;;10.98;7.05;;;16.50;70.70;;;;;;5055242;28;20390;-82
2021/05/06 14:07:22;;;;;;;11.82;7.63;;;16.50;70.30;;;;;;5055198;28;20098;-82
2021/05/06 14:09:49;;;;;;;10.93;7.20;;;16.50;70.20;;;;;;5054660;28;20116;-82
2021/05/06 14:12:15;;;;;;;10.88;7.38;;;16.50;70.10;;;;;;5055015;28;20029;-82
2021/05/06 14:14:41;;;;;;;11.77;7.35;;;16.50;70.20;;;;;;5055799;28;20111;-83
2021/05/06 14:17:06;;;;;;;11.55;7.30;;;16.60;69.60;;;;;;5054918;28;20491;-82
2021/05/06 14:19:35;;;;;;;12.07;7.38;;;16.50;69.30;;;;;;5056334;28;20025;-83
2021/05/06 14:22:01;;;;;;;10.98;6.78;;;16.50;69.30;;;;;;5054837;28;20379;-82
2021/05/06 14:24:27;;;;;;;9.73;6.82;;;16.60;69.10;;;;;;5054651;28;20031;-83
2021/05/06 14:26:54;;;;;;;10.02;6.82;;;16.60;68.90;;;;;;5055028;28;20029;-82
2021/05/06 14:29:20;;;;;;;11.20;7.15;;;16.80;68.90;;;;;;5054866;28;20021;-82
2021/05/06 14:31:46;;;;;;;7.88;5.45;;;17.00;68.40;;;;;;5054590;28;20029;-83
2021/05/06 14:34:11;;;;;;;9.45;5.68;;;17.20;67.70;;;;;;5053426;28;20056;-82
2021/05/06 14:36:37;;;;;;;6.22;4.68;;;17.40;67.10;;;;;;5054602;28;20025;-82
2021/05/06 14:39:05;;;;;;;8.43;5.10;;;17.50;66.30;;;;;;5054832;28;20023;-83
2021/05/06 14:41:30;;;;;;;8.90;4.97;;;17.60;65.50;;;;;;5054824;28;20029;-82
2021/05/06 14:43:57;;;;;;;7.65;4.00;;;17.80;65.20;;;;;;5054472;28;20025;-81
2021/05/06 14:46:23;;;;;;;7.82;4.50;;;17.90;64.50;;;;;;5054759;28;20178;-82
2021/05/06 14:48:49;;;;;;;10.02;4.45;;;18.00;63.80;;;;;;5054854;28;20017;-82
2021/05/06 14:51:16;;;;;;;8.30;4.95;;;18.00;63.30;;;;;;5054907;28;20025;-82
2021/05/06 14:53:42;;;;;;;7.97;5.00;;;18.00;63.10;;;;;;5056989;28;20089;-82
2021/05/06 14:56:08;;;;;;;8.68;5.38;;;18.00;63.00;;;;;;5060053;28;20025;-80
2021/05/06 14:58:34;;;;;;;13.82;4.43;;;18.00;62.80;;;;;;5057532;28;20061;-82
2021/05/06 15:01:00;;;;;;;6.75;3.50;;;18.10;62.60;;;;;;5057456;28;20036;-82
2021/05/06 15:03:26;;;;;;;6.05;3.00;;;18.10;62.00;;;;;;5055447;28;20025;-82
2021/05/06 15:05:52;;;;;;;4.57;2.60;;;18.10;61.10;;;;;;5071198;28;20152;-81
2021/05/06 15:08:18;;;;;;;6.35;3.35;;;18.00;60.60;;;;;;5075479;28;20021;-82
2021/05/06 15:10:45;;;;;;;4.50;2.90;;;17.80;60.60;;;;;;5077078;28;20333;-82
2021/05/06 15:13:11;;;;;;;5.07;2.90;;;17.70;60.70;;;;;;5076847;28;20016;-85
2021/05/06 15:15:37;;;;;;;5.40;3.30;;;17.50;60.90;;;;;;5075357;28;20021;-82
2021/05/06 15:18:03;;;;;;;6.45;3.45;;;17.30;61.40;;;;;;5062747;28;20472;-83
2021/05/06 15:20:30;;;;;;;6.13;3.53;;;17.30;61.50;;;;;;5061410;28;20471;-83
2021/05/06 15:22:55;;;;;;;7.43;2.95;;;17.20;61.40;;;;;;5061261;28;20033;-83
2021/05/06 15:25:22;;;;;;;4.70;2.80;;;17.20;61.40;;;;;;5057979;28;20035;-83
2021/05/06 15:27:49;;;;;;;7.43;3.80;;;17.20;61.60;;;;;;5056350;28;20051;-82
2021/05/06 15:30:17;;;;;;;5.60;2.97;;;17.10;61.70;;;;;;5053624;28;20025;-84
2021/05/06 15:32:43;;;;;;;5.03;2.25;;;17.10;61.80;;;;;;5052912;28;20111;-83
2021/05/06 15:35:09;;;;;;;4.95;2.47;;;16.90;61.30;;;;;;5053201;28;20119;-83
2021/05/06 15:37:36;;;;;;;4.95;2.30;;;16.80;61.30;;;;;;5052839;28;20033;-83
2021/05/06 15:40:04;;;;;;;6.25;3.20;;;16.70;61.40;;;;;;5053172;28;20057;-83
2021/05/06 15:42:30;;;;;;;4.00;2.50;;;16.50;61.50;;;;;;5053121;28;20025;-84
2021/05/06 15:44:56;;;;;;;5.53;2.47;;;16.50;61.50;;;;;;5052890;28;20478;-83
2021/05/06 15:47:22;;;;;;;3.95;2.25;;;16.40;61.50;;;;;;5052451;28;20116;-83
2021/05/06 15:49:48;;;;;;;7.32;2.40;;;16.30;61.50;;;;;;5052775;28;20108;-84
2021/05/06 15:52:14;;;;;;;5.10;2.20;;;16.20;61.60;;;;;;5053474;28;20448;-83
2021/05/06 15:54:40;;;;;;;3.28;2.20;;;16.10;61.70;;;;;;5053484;28;20046;-83
2021/05/06 15:57:07;;;;;;;6.75;3.75;;;16.00;62.40;;;;;;5054736;28;20037;-83
2021/05/06 15:59:34;;;;;;;8.15;3.20;;;15.90;62.00;;;;;;5053937;28;20032;-83
2021/05/06 16:02:00;;;;;;;5.93;3.00;;;15.80;62.00;;;;;;5054233;28;20444;-83
2021/05/06 16:04:33;;;;;;;5.93;2.60;;;15.80;62.30;;;;;;5052200;28;20102;-83
2021/05/06 16:06:58;;;;;;;4.75;2.80;;;15.70;62.30;;;;;;5052009;28;20186;-83
2021/05/06 16:09:24;;;;;;;6.28;2.60;;;15.60;62.10;;;;;;5052479;28;20119;-83
2021/05/06 16:11:52;;;;;;;5.40;3.40;;;15.60;61.90;;;;;;5053331;28;20379;-82
2021/05/06 16:14:17;;;;;;;4.05;2.13;;;15.50;62.00;;;;;;5052544;28;20459;-82
2021/05/06 16:16:43;;;;;;;3.38;2.20;;;15.40;62.00;;;;;;5052367;28;20032;-81
2021/05/06 16:19:10;;;;;;;5.03;2.20;;;15.40;62.00;;;;;;5052014;28;20021;-82
2021/05/06 16:21:37;;;;;;;7.38;3.50;;;15.30;62.00;;;;;;5051611;28;20406;-81
2021/05/06 16:24:04;;;;;;;4.82;2.58;;;15.30;62.00;;;;;;5053715;28;20017;-82